Time;durP1;ratioP1;P1;durP2;ratioP2;P2;SDS_P1;SDS_P2;PMS_P1;PMS_P2;Temp;Humidity;BMP_temperature;BMP_pressure;BME280_temperature;BME280_humidity;BME280_pressure;Samples;Min_cycle;Max_cycle;Signal;HPM_P1;HPM_P2
2021/12/22 00:01:48;;;;;;;14.15;6.35;;;;;;;-4.40;76.67;95427.78;5031914;28;20432;-72
2021/12/22 00:04:17;;;;;;;19.45;6.85;;;;;;;-4.38;76.41;95437.13;5032436;28;20207;-73
2021/12/22 00:06:44;;;;;;;12.05;6.25;;;;;;;-4.31;76.12;95435.25;5006155;28;20205;-73
2021/12/22 00:09:11;;;;;;;15.25;5.93;;;;;;;-4.21;76.24;95433.94;5032320;28;20200;-73
2021/12/22 00:11:38;;;;;;;7.20;4.40;;;;;;;-4.32;76.25;95438.91;5005573;28;20224;-73
2021/12/22 00:14:05;;;;;;;20.92;8.63;;;;;;;-4.47;76.74;95433.13;5031755;28;20678;-73
2021/12/22 00:16:32;;;;;;;18.60;8.65;;;;;;;-4.55;78.20;95440.50;5031370;28;20220;-74
2021/12/22 00:18:59;;;;;;;16.48;7.90;;;;;;;-4.56;78.20;95426.47;5032360;28;20205;-73
2021/12/22 00:21:27;;;;;;;37.15;19.13;;;;;;;-4.55;77.79;95440.50;5028594;28;20196;-73
2021/12/22 00:23:54;;;;;;;39.83;20.60;;;;;;;-4.67;77.51;95443.03;5031006;28;20216;-73
2021/12/22 00:26:21;;;;;;;5.03;3.08;;;;;;;-4.71;76.85;95437.34;5031562;28;20203;-74
2021/12/22 00:28:49;;;;;;;15.15;5.32;;;;;;;-4.77;77.12;95437.38;5018543;28;20209;-74
2021/12/22 00:31:19;;;;;;;22.02;8.27;;;;;;;-4.85;77.37;95446.38;5031759;28;20246;-73
2021/12/22 00:33:48;;;;;;;18.80;6.57;;;;;;;-4.87;76.81;95442.31;5032066;28;20251;-73
2021/12/22 00:36:17;;;;;;;6.60;3.42;;;;;;;-4.87;76.98;95439.66;5031625;28;20266;-73
2021/12/22 00:38:46;;;;;;;12.68;5.35;;;;;;;-4.83;77.88;95446.97;5031451;28;20208;-73
2021/12/22 00:41:13;;;;;;;7.72;3.88;;;;;;;-4.79;78.73;95440.25;5030909;28;20239;-73
2021/12/22 00:43:41;;;;;;;7.20;4.38;;;;;;;-4.60;77.50;95446.41;5031349;28;20569;-74
2021/12/22 00:46:08;;;;;;;11.02;5.70;;;;;;;-4.60;77.46;95443.78;5020644;28;20201;-73
2021/12/22 00:48:35;;;;;;;7.85;5.05;;;;;;;-4.60;77.80;95459.63;5028827;28;20681;-74
2021/12/22 00:51:02;;;;;;;11.45;3.80;;;;;;;-4.49;77.65;95455.50;5031134;28;20592;-74
2021/12/22 00:53:29;;;;;;;15.52;5.43;;;;;;;-4.39;77.19;95455.84;5017278;28;20251;-74
2021/12/22 00:55:57;;;;;;;9.23;4.40;;;;;;;-4.24;76.19;95452.91;5030604;28;20215;-73
2021/12/22 00:58:25;;;;;;;10.70;6.05;;;;;;;-4.36;75.91;95460.69;5026067;28;20219;-73
2021/12/22 01:00:52;;;;;;;10.25;5.43;;;;;;;-4.47;75.62;95459.53;5022570;28;20224;-73
2021/12/22 01:03:20;;;;;;;8.18;4.78;;;;;;;-4.47;74.98;95467.47;5031416;28;20208;-74
2021/12/22 01:05:48;;;;;;;11.98;4.30;;;;;;;-4.57;74.86;95451.28;5031155;28;20196;-73
2021/12/22 01:08:16;;;;;;;13.52;5.45;;;;;;;-4.53;75.88;95455.13;5031101;28;20204;-74
2021/12/22 01:10:42;;;;;;;12.57;5.35;;;;;;;-4.45;75.64;95452.22;5031294;28;20251;-74
2021/12/22 01:13:12;;;;;;;10.30;5.32;;;;;;;-4.42;75.72;95446.50;5030616;28;20247;-74
2021/12/22 01:15:39;;;;;;;10.77;4.90;;;;;;;-4.39;75.25;95446.09;5030876;28;20610;-74
2021/12/22 01:18:12;;;;;;;7.65;3.58;;;;;;;-4.48;74.25;95436.78;4991847;28;20201;-74
2021/12/22 01:20:53;;;;;;;7.25;3.88;;;;;;;-4.80;75.12;95440.47;5015747;28;20196;-74
2021/12/22 01:23:21;;;;;;;16.05;7.20;;;;;;;-4.86;76.45;95428.09;5031072;28;20192;-74
2021/12/22 01:25:49;;;;;;;15.02;6.53;;;;;;;-4.98;77.78;95435.06;5030234;28;20326;-74
2021/12/22 01:28:22;;;;;;;14.23;5.90;;;;;;;-5.17;78.59;95432.28;5030665;28;20204;-74
2021/12/22 01:30:49;;;;;;;20.00;8.60;;;;;;;-5.09;80.12;95424.16;5030966;28;20197;-74
2021/12/22 01:33:17;;;;;;;15.93;7.93;;;;;;;-5.09;78.95;95437.34;5031062;28;20314;-74
2021/12/22 01:35:45;;;;;;;9.52;3.88;;;;;;;-5.19;79.24;95426.41;5030686;28;20196;-74
2021/12/22 01:38:12;;;;;;;13.25;6.63;;;;;;;-5.44;80.01;95442.16;5030916;28;20200;-75
2021/12/22 01:40:43;;;;;;;7.03;3.78;;;;;;;-5.52;79.86;95433.66;5030897;28;20228;-74
2021/12/22 01:43:11;;;;;;;5.10;2.92;;;;;;;-5.65;80.73;95426.59;5030471;28;20655;-73
2021/12/22 01:46:07;;;;;;;15.68;4.80;;;;;;;-5.78;81.37;95424.81;5023774;28;20739;-73
2021/12/22 01:51:46;;;;;;;19.63;9.10;;;;;;;-5.79;81.80;95423.19;4975783;28;20225;-74
2021/12/22 01:54:24;;;;;;;46.42;22.33;;;;;;;-5.73;82.44;95419.69;5021766;28;20200;-74
2021/12/22 01:56:52;;;;;;;46.60;21.95;;;;;;;-5.75;82.58;95424.41;5024587;28;20267;-74
2021/12/22 01:59:20;;;;;;;40.58;20.63;;;;;;;-5.76;81.95;95425.41;5023236;28;20211;-74
2021/12/22 02:01:51;;;;;;;47.03;21.58;;;;;;;-5.78;81.67;95424.81;5030603;28;20311;-74
2021/12/22 02:04:18;;;;;;;16.23;6.95;;;;;;;-5.79;83.12;95415.25;5030767;28;20200;-74
2021/12/22 02:06:46;;;;;;;15.05;7.47;;;;;;;-5.74;82.68;95420.72;5004638;28;20227;-74
2021/12/22 02:09:21;;;;;;;10.65;5.80;;;;;;;-5.74;82.11;95420.72;5030642;28;20204;-74
2021/12/22 02:11:48;;;;;;;17.10;5.82;;;;;;;-5.69;81.51;95424.56;5030612;28;20305;-74
2021/12/22 02:14:15;;;;;;;14.60;5.95;;;;;;;-5.52;81.55;95415.19;5030128;28;20211;-74
2021/12/22 02:16:42;;;;;;;19.55;6.18;;;;;;;-5.38;80.64;95420.22;5021692;28;20237;-74
2021/12/22 02:19:11;;;;;;;18.13;6.93;;;;;;;-5.46;80.32;95416.97;5025977;28;20536;-74
2021/12/22 02:21:45;;;;;;;15.07;7.00;;;;;;;-5.34;80.47;95404.78;5027638;28;20283;-73
2021/12/22 02:24:12;;;;;;;19.98;6.55;;;;;;;-5.18;80.44;95414.03;5030636;28;20211;-75
2021/12/22 02:26:44;;;;;;;15.77;5.40;;;;;;;-4.85;80.33;95403.28;5030269;28;20288;-75
2021/12/22 02:29:20;;;;;;;15.90;6.93;;;;;;;-5.02;79.08;95411.69;5029826;28;20196;-74
2021/12/22 02:31:59;;;;;;;16.52;6.90;;;;;;;-5.02;78.61;95403.78;5030171;28;20231;-74
2021/12/22 02:34:27;;;;;;;14.38;6.32;;;;;;;-4.98;78.93;95404.19;5030258;28;20203;-74
2021/12/22 02:36:59;;;;;;;15.07;7.57;;;;;;;-5.39;79.76;95391.38;5017396;28;20231;-74
2021/12/22 02:39:28;;;;;;;19.30;7.28;;;;;;;-5.44;81.22;95399.09;5030336;28;20223;-74
2021/12/22 02:41:55;;;;;;;16.52;7.03;;;;;;;-5.39;81.41;95399.31;5030052;28;20236;-74
2021/12/22 02:44:23;;;;;;;24.00;7.88;;;;;;;-5.27;79.81;95392.34;5029738;28;20710;-73
2021/12/22 02:46:50;;;;;;;17.63;8.07;;;;;;;-5.24;79.71;95399.03;5018662;28;20583;-74
2021/12/22 02:49:17;;;;;;;13.82;7.13;;;;;;;-5.16;79.32;95390.84;5033812;28;20200;-74
2021/12/22 02:51:44;;;;;;;20.25;7.75;;;;;;;-5.04;79.84;95389.97;5033752;28;20221;-73
2021/12/22 02:54:17;;;;;;;21.90;6.95;;;;;;;-5.07;79.76;95400.97;5033633;28;20239;-74
2021/12/22 02:56:55;;;;;;;12.68;7.25;;;;;;;-4.98;79.49;95398.09;5033815;28;20537;-75
2021/12/22 02:59:53;;;;;;;18.58;8.15;;;;;;;-5.22;79.94;95403.09;5033341;28;20192;-74
2021/12/22 03:02:30;;;;;;;16.52;7.45;;;;;;;-5.42;81.17;95403.16;5015726;28;20204;-73
2021/12/22 03:04:58;;;;;;;21.30;8.68;;;;;;;-5.59;80.99;95406.47;5033298;28;20199;-74
2021/12/22 03:07:28;;;;;;;18.75;7.60;;;;;;;-5.44;80.96;95409.66;5033315;28;20215;-74
2021/12/22 03:10:00;;;;;;;16.92;7.53;;;;;;;-5.61;81.58;95411.16;5027030;28;20656;-73
2021/12/22 03:12:31;;;;;;;19.33;7.97;;;;;;;-5.52;81.12;95408.09;5014273;28;20195;-74
2021/12/22 03:14:58;;;;;;;20.42;6.97;;;;;;;-5.30;80.79;95398.03;5033153;28;20605;-75
2021/12/22 03:17:25;;;;;;;19.17;9.38;;;;;;;-5.15;80.51;95393.28;5033198;28;20218;-74
2021/12/22 03:19:53;;;;;;;22.25;10.05;;;;;;;-4.96;80.11;95398.69;5033022;28;20216;-75
2021/12/22 03:22:21;;;;;;;18.45;7.90;;;;;;;-5.08;79.99;95402.00;5030477;28;20211;-74
2021/12/22 03:24:50;;;;;;;28.05;12.48;;;;;;;-5.13;80.36;95396.53;5033658;28;20287;-73
2021/12/22 03:27:19;;;;;;;23.38;11.93;;;;;;;-5.16;80.18;95402.22;5033186;28;20291;-74
2021/12/22 03:29:46;;;;;;;32.72;12.50;;;;;;;-5.00;82.27;95406.22;5032795;28;20211;-74
2021/12/22 03:32:13;;;;;;;27.58;10.85;;;;;;;-4.89;80.41;95402.09;5032470;28;20703;-74
2021/12/22 03:34:42;;;;;;;21.38;9.80;;;;;;;-4.86;79.76;95404.31;5033002;28;20429;-75
2021/12/22 03:37:10;;;;;;;13.25;7.13;;;;;;;-4.72;79.21;95408.50;5033010;28;20211;-73
2021/12/22 03:39:37;;;;;;;24.83;9.20;;;;;;;-5.06;78.90;95389.38;5032768;28;20671;-74
2021/12/22 03:42:06;;;;;;;18.15;7.35;;;;;;;-5.08;79.16;95393.28;5032511;28;20232;-74
2021/12/22 03:44:34;;;;;;;25.45;8.93;;;;;;;-5.05;78.92;95387.53;5032839;28;20220;-73
2021/12/22 03:47:01;;;;;;;15.73;7.38;;;;;;;-5.02;80.06;95393.22;5019047;28;20215;-75
2021/12/22 03:49:29;;;;;;;15.95;7.75;;;;;;;-5.01;79.21;95392.19;5032678;28;20202;-74
2021/12/22 03:51:56;;;;;;;16.80;6.18;;;;;;;-4.97;79.18;95394.41;5032539;28;20201;-74
2021/12/22 03:54:23;;;;;;;11.00;4.85;;;;;;;-5.13;78.42;95398.38;5032432;28;20239;-74
2021/12/22 03:56:50;;;;;;;17.08;7.35;;;;;;;-5.25;78.10;95403.50;5032157;28;20667;-73
2021/12/22 03:59:18;;;;;;;17.45;7.15;;;;;;;-5.15;79.57;95417.06;5031807;28;20232;-74
2021/12/22 04:01:47;;;;;;;15.02;7.25;;;;;;;-5.10;79.11;95406.69;5031933;28;20570;-74
2021/12/22 04:04:17;;;;;;;24.90;7.97;;;;;;;-5.29;78.30;95407.56;5031821;28;20291;-74
2021/12/22 04:06:46;;;;;;;12.75;7.00;;;;;;;-5.62;80.15;95413.00;5031116;28;20196;-74
2021/12/22 04:09:13;;;;;;;14.65;6.88;;;;;;;-5.74;80.40;95415.44;5025429;28;20291;-74
2021/12/22 04:11:40;;;;;;;14.40;5.57;;;;;;;-5.54;80.59;95414.56;5030617;28;20427;-74
2021/12/22 04:14:08;;;;;;;11.77;6.35;;;;;;;-5.61;80.21;95408.53;5031504;28;20725;-74
2021/12/22 04:16:34;;;;;;;11.50;6.65;;;;;;;-5.55;79.71;95412.97;5031736;28;20240;-74
2021/12/22 04:19:03;;;;;;;11.30;5.88;;;;;;;-5.48;79.75;95419.03;5018569;28;20213;-74
2021/12/22 04:21:30;;;;;;;18.90;6.18;;;;;;;-5.40;79.48;95421.44;5027435;28;20197;-74
2021/12/22 04:23:57;;;;;;;13.70;6.57;;;;;;;-5.37;79.27;95426.31;5031923;28;20247;-73
2021/12/22 04:26:27;;;;;;;13.15;6.45;;;;;;;-5.36;79.28;95420.00;5031520;28;20219;-74
2021/12/22 04:28:53;;;;;;;11.48;6.32;;;;;;;-5.25;78.25;95411.41;5018298;28;20976;-74
2021/12/22 04:31:20;;;;;;;10.32;5.38;;;;;;;-5.63;78.88;95426.38;5031482;28;20224;-74
2021/12/22 04:33:49;;;;;;;15.10;5.82;;;;;;;-5.69;78.76;95427.22;5031476;28;20634;-75
2021/12/22 04:36:17;;;;;;;29.08;11.00;;;;;;;-5.76;78.83;95433.31;5031156;28;20263;-75
2021/12/22 04:38:44;;;;;;;8.20;5.35;;;;;;;-6.03;78.15;95426.50;5031408;28;20212;-74
2021/12/22 04:41:11;;;;;;;10.25;5.78;;;;;;;-6.13;78.33;95410.28;5031107;28;20240;-73
2021/12/22 04:43:38;;;;;;;22.75;9.38;;;;;;;-6.00;79.32;95420.00;5031064;28;20562;-73
2021/12/22 04:46:04;;;;;;;12.25;5.60;;;;;;;-6.00;79.35;95420.81;5021197;28;20245;-74
2021/12/22 04:48:34;;;;;;;11.77;4.28;;;;;;;-6.11;78.22;95429.34;5028238;28;20254;-73
2021/12/22 04:51:11;;;;;;;7.28;3.47;;;;;;;-6.08;77.55;95439.47;5031494;28;20192;-73
2021/12/22 04:53:49;;;;;;;8.27;4.72;;;;;;;-5.99;77.49;95438.25;5031311;28;20227;-74
2021/12/22 04:56:16;;;;;;;10.95;4.68;;;;;;;-6.07;77.57;95441.09;5031410;28;20218;-76
2021/12/22 04:58:43;;;;;;;7.57;3.67;;;;;;;-6.06;76.51;95437.47;5033124;28;20220;-74
2021/12/22 05:01:10;;;;;;;13.77;5.15;;;;;;;-6.07;76.93;95435.84;5034717;28;20196;-75
2021/12/22 05:03:37;;;;;;;10.40;4.00;;;;;;;-6.05;77.41;95438.28;5032444;28;20299;-72
2021/12/22 05:06:04;;;;;;;15.18;5.05;;;;;;;-6.02;76.69;95441.31;5032021;28;20212;-74
2021/12/22 05:08:31;;;;;;;7.63;4.85;;;;;;;-6.02;76.99;95438.69;5031101;28;20783;-76
2021/12/22 05:10:59;;;;;;;10.52;3.80;;;;;;;-5.95;77.70;95441.28;5031142;28;20219;-75
2021/12/22 05:13:26;;;;;;;16.65;5.50;;;;;;;-5.99;77.13;95443.53;5027854;28;20236;-74
2021/12/22 05:15:53;;;;;;;9.32;4.05;;;;;;;-5.96;78.12;95442.31;5026329;28;20199;-73
2021/12/22 05:18:35;;;;;;;7.97;4.20;;;;;;;-5.98;77.59;95445.16;5030979;28;20204;-75
2021/12/22 05:21:08;;;;;;;10.10;4.35;;;;;;;-6.11;77.78;95451.25;5017362;28;20363;-73
2021/12/22 05:23:35;;;;;;;9.43;4.55;;;;;;;-5.96;77.14;95453.66;5030900;28;20196;-72
2021/12/22 05:26:03;;;;;;;11.80;5.80;;;;;;;-6.01;77.54;95461.38;5030679;28;20216;-73
2021/12/22 05:28:30;;;;;;;8.55;4.95;;;;;;;-5.94;77.19;95454.28;5030394;28;20706;-73
2021/12/22 05:30:57;;;;;;;15.35;7.03;;;;;;;-5.95;77.80;95457.94;5007613;28;20231;-73
2021/12/22 05:33:24;;;;;;;23.88;7.13;;;;;;;-5.75;78.85;95466.59;5023375;28;20228;-74
2021/12/22 05:35:51;;;;;;;12.18;5.50;;;;;;;-5.66;77.11;95461.09;5030383;28;20679;-74
2021/12/22 05:38:18;;;;;;;14.65;6.15;;;;;;;-5.80;78.56;95460.31;5030391;28;20204;-74
2021/12/22 05:40:45;;;;;;;14.68;5.93;;;;;;;-6.01;77.89;95471.91;5030684;28;20263;-74
2021/12/22 05:43:13;;;;;;;18.35;4.65;;;;;;;-5.92;77.16;95462.00;5030057;28;20405;-74
2021/12/22 05:45:40;;;;;;;12.02;5.32;;;;;;;-5.65;78.57;95444.25;4997548;28;20204;-73
2021/12/22 05:48:07;;;;;;;14.75;5.88;;;;;;;-5.31;77.71;95462.41;5024634;28;20200;-73
2021/12/22 05:50:35;;;;;;;12.98;6.80;;;;;;;-5.24;78.06;95463.22;5030435;28;20200;-73
2021/12/22 05:53:02;;;;;;;17.67;8.02;;;;;;;-5.24;76.70;95457.13;5030176;28;20227;-72
2021/12/22 05:55:28;;;;;;;31.15;10.32;;;;;;;-5.25;76.56;95468.69;5030764;28;20208;-73
2021/12/22 05:57:55;;;;;;;18.80;7.30;;;;;;;-5.25;76.09;95469.50;5030372;28;20227;-73
2021/12/22 06:00:24;;;;;;;11.32;5.78;;;;;;;-5.57;76.42;95463.31;5030560;28;20204;-73
2021/12/22 06:02:51;;;;;;;15.30;6.03;;;;;;;-5.72;77.12;95471.44;5030360;28;20213;-73
2021/12/22 06:05:19;;;;;;;7.30;3.90;;;;;;;-5.83;78.02;95458.88;5029741;28;20256;-74
2021/12/22 06:07:46;;;;;;;11.05;4.75;;;;;;;-5.61;78.27;95456.03;5016628;28;20219;-73
2021/12/22 06:10:13;;;;;;;9.80;4.85;;;;;;;-5.48;78.09;95461.25;5030678;28;20208;-73
2021/12/22 06:12:40;;;;;;;16.40;7.07;;;;;;;-5.51;78.00;95453.75;5030196;28;20232;-73
2021/12/22 06:15:08;;;;;;;17.27;7.18;;;;;;;-5.26;77.08;95473.16;5030114;28;20694;-73
2021/12/22 06:17:36;;;;;;;12.95;6.20;;;;;;;-5.40;76.97;95479.50;5017820;28;20549;-73
2021/12/22 06:20:05;;;;;;;12.63;5.40;;;;;;;-5.48;77.17;95474.47;5012895;28;20200;-72
2021/12/22 06:22:34;;;;;;;7.60;4.93;;;;;;;-5.51;77.51;95483.59;5029968;28;20278;-73
2021/12/22 06:25:01;;;;;;;20.23;8.18;;;;;;;-5.68;78.23;95492.16;5023516;28;20209;-73
2021/12/22 06:27:28;;;;;;;20.67;7.28;;;;;;;-5.52;77.84;95483.81;5028100;28;20627;-74
2021/12/22 06:29:55;;;;;;;15.85;7.30;;;;;;;-5.41;77.54;95491.88;5025027;28;20307;-74
2021/12/22 06:32:22;;;;;;;11.80;6.70;;;;;;;-5.24;77.42;95494.91;5033888;28;20219;-73
2021/12/22 06:34:50;;;;;;;8.40;5.20;;;;;;;-5.28;77.17;95488.41;5033964;28;20235;-74
2021/12/22 06:37:17;;;;;;;34.88;11.23;;;;;;;-5.18;76.64;95494.03;5033350;28;20687;-73
2021/12/22 06:39:44;;;;;;;42.53;13.93;;;;;;;-5.45;77.17;95492.50;5032966;28;20205;-73
2021/12/22 06:42:11;;;;;;;40.03;16.17;;;;;;;-5.33;77.68;95490.88;5033065;28;20235;-74
2021/12/22 06:44:38;;;;;;;21.35;9.07;;;;;;;-5.08;77.08;95493.63;5033897;28;20201;-73
2021/12/22 06:47:06;;;;;;;12.20;6.88;;;;;;;-4.86;76.58;95488.84;5014955;28;20202;-74
2021/12/22 06:49:32;;;;;;;12.23;6.47;;;;;;;-4.72;76.75;95487.75;5025692;28;20196;-74
2021/12/22 06:52:01;;;;;;;19.48;9.45;;;;;;;-4.61;75.48;95484.44;5032339;28;20207;-74
2021/12/22 06:54:28;;;;;;;36.92;15.52;;;;;;;-4.78;74.61;95493.88;5033029;28;20240;-74
2021/12/22 06:56:55;;;;;;;19.88;8.77;;;;;;;-4.47;74.60;95501.84;5032070;28;20223;-73
2021/12/22 06:59:22;;;;;;;24.85;9.93;;;;;;;-4.71;73.14;95494.66;5033765;28;20204;-74
2021/12/22 07:01:50;;;;;;;8.90;5.28;;;;;;;-4.99;73.61;95502.13;5033074;28;20589;-74
2021/12/22 07:04:17;;;;;;;24.98;9.75;;;;;;;-4.96;74.54;95502.50;5033536;28;20204;-74
2021/12/22 07:06:44;;;;;;;19.75;7.55;;;;;;;-4.84;75.17;95506.13;5007215;28;20208;-74
2021/12/22 07:09:12;;;;;;;18.08;7.47;;;;;;;-4.69;75.37;95503.19;5032512;28;20251;-74
2021/12/22 07:11:40;;;;;;;11.90;5.00;;;;;;;-4.40;74.53;95507.91;5032647;28;20207;-74
2021/12/22 07:14:09;;;;;;;7.43;4.15;;;;;;;-4.04;72.08;95501.16;5033050;28;20236;-74
2021/12/22 07:16:36;;;;;;;12.65;5.32;;;;;;;-4.11;71.18;95503.06;5033389;28;20204;-73
2021/12/22 07:19:03;;;;;;;11.38;5.25;;;;;;;-3.97;71.67;95502.75;5032961;28;20205;-74
2021/12/22 07:21:31;;;;;;;12.13;5.43;;;;;;;-3.77;70.91;95486.69;5028346;28;20655;-74
2021/12/22 07:23:58;;;;;;;16.92;5.30;;;;;;;-3.23;69.47;95493.06;5032730;28;20208;-73
2021/12/22 07:26:26;;;;;;;9.40;4.63;;;;;;;-2.97;69.90;95498.06;5032522;28;20605;-74
2021/12/22 07:28:53;;;;;;;11.52;4.63;;;;;;;-2.58;66.44;95490.66;5032818;28;20228;-74
2021/12/22 07:31:20;;;;;;;14.35;6.07;;;;;;;-2.57;66.46;95490.44;5032659;28;20205;-74
2021/12/22 07:33:52;;;;;;;17.73;7.28;;;;;;;-2.41;66.98;95491.66;5031818;28;20698;-74
2021/12/22 07:36:19;;;;;;;16.45;6.20;;;;;;;-2.44;66.08;95489.44;5032402;28;20227;-73
2021/12/22 07:38:52;;;;;;;11.05;5.80;;;;;;;-2.16;64.96;95489.66;5031771;28;20205;-73
2021/12/22 07:41:19;;;;;;;7.10;3.17;;;;;;;-2.12;64.40;95486.56;5032076;28;20598;-73
2021/12/22 07:43:48;;;;;;;7.15;4.43;;;;;;;-2.13;64.63;95482.28;5032805;28;20196;-73
2021/12/22 07:46:15;;;;;;;9.43;4.43;;;;;;;-1.92;63.81;95484.41;5020615;28;20220;-73
2021/12/22 07:48:42;;;;;;;10.32;5.60;;;;;;;-1.85;63.93;95487.75;5030538;28;20223;-73
2021/12/22 07:51:10;;;;;;;18.77;7.28;;;;;;;-2.47;65.65;95484.63;5032721;28;20208;-74
2021/12/22 07:53:37;;;;;;;9.20;5.13;;;;;;;-2.40;66.44;95487.16;5032094;28;20223;-72
2021/12/22 07:56:04;;;;;;;8.60;4.70;;;;;;;-2.37;65.59;95490.19;5032508;28;20258;-74
2021/12/22 07:58:31;;;;;;;11.75;2.72;;;;;;;-2.46;65.11;95488.88;5031702;28;20224;-74
2021/12/22 08:00:59;;;;;;;5.75;3.22;;;;;;;-2.36;64.64;95489.16;5032330;28;20635;-74
2021/12/22 08:03:27;;;;;;;3.10;2.42;;;;;;;-2.45;65.15;95479.06;5032292;28;20200;-74
2021/12/22 08:05:54;;;;;;;8.05;5.10;;;;;;;-2.59;65.46;95494.34;5032230;28;20200;-74
2021/12/22 08:08:21;;;;;;;8.73;3.33;;;;;;;-2.59;65.30;95499.66;5006017;28;20204;-74
2021/12/22 08:10:48;;;;;;;7.45;4.15;;;;;;;-2.36;65.83;95494.47;5031631;28;20254;-74
2021/12/22 08:13:16;;;;;;;5.45;2.75;;;;;;;-2.14;63.57;95502.69;5031396;28;20706;-74
2021/12/22 08:15:43;;;;;;;8.77;4.65;;;;;;;-2.32;65.36;95492.94;5031889;28;20322;-74
2021/12/22 08:18:12;;;;;;;8.73;3.30;;;;;;;-2.17;65.22;95503.97;5032329;28;20204;-74
2021/12/22 08:20:39;;;;;;;10.20;4.30;;;;;;;-2.01;63.97;95501.69;5029449;28;20271;-73
2021/12/22 08:23:06;;;;;;;11.10;5.32;;;;;;;-1.78;62.14;95500.94;5031488;28;20258;-73
2021/12/22 08:25:33;;;;;;;10.77;4.85;;;;;;;-1.51;62.29;95502.94;5031734;28;20212;-72
2021/12/22 08:28:00;;;;;;;3.65;2.70;;;;;;;-1.39;62.10;95500.28;5031895;28;20224;-73
2021/12/22 08:30:27;;;;;;;4.25;2.70;;;;;;;-1.50;60.99;95496.56;5031740;28;20227;-73
2021/12/22 08:32:54;;;;;;;7.30;3.72;;;;;;;-1.76;62.05;95498.84;5031308;28;20239;-73
2021/12/22 08:35:25;;;;;;;8.30;3.88;;;;;;;-1.65;61.20;95506.03;5031615;28;20232;-73
2021/12/22 08:40:36;;;;;;;6.18;3.75;;;;;;;-1.26;61.72;95499.22;5031133;28;20339;-74
2021/12/22 08:43:03;;;;;;;5.05;2.20;;;;;;;-0.95;61.05;95496.16;5018165;28;20217;-73
2021/12/22 08:45:30;;;;;;;7.35;4.63;;;;;;;-1.45;60.32;95507.31;5011185;28;20219;-73
2021/12/22 08:47:57;;;;;;;9.25;3.75;;;;;;;-1.18;61.28;95507.66;5024076;28;20603;-73
2021/12/22 08:50:26;;;;;;;10.95;5.32;;;;;;;-1.27;61.17;95514.38;5031373;28;20293;-73
2021/12/22 08:52:54;;;;;;;12.52;5.47;;;;;;;-0.88;59.92;95501.38;5030963;28;20696;-72
2021/12/22 08:55:21;;;;;;;11.25;4.57;;;;;;;-0.81;59.02;95499.38;5004796;28;20315;-74
2021/12/22 08:57:48;;;;;;;12.40;3.92;;;;;;;-0.66;57.60;95498.88;5031065;28;20224;-73
2021/12/22 09:00:16;;;;;;;13.60;4.93;;;;;;;-0.69;57.73;95504.69;5031329;28;20196;-72
2021/12/22 09:02:45;;;;;;;4.00;1.85;;;;;;;-1.39;58.64;95512.75;5030630;28;20207;-72
2021/12/22 09:05:13;;;;;;;9.10;4.45;;;;;;;-1.55;59.84;95504.44;5031149;28;20258;-72
2021/12/22 09:07:41;;;;;;;14.73;5.95;;;;;;;-1.34;59.97;95508.34;5030969;28;20200;-72
2021/12/22 09:10:09;;;;;;;9.27;5.72;;;;;;;-1.12;59.52;95506.72;5018904;28;20207;-73
2021/12/22 09:12:36;;;;;;;8.45;5.28;;;;;;;-0.94;58.92;95503.09;5029864;28;20706;-73
2021/12/22 09:15:03;;;;;;;9.45;4.93;;;;;;;-0.38;59.03;95497.03;5030529;28;20231;-73
2021/12/22 09:17:30;;;;;;;8.07;5.05;;;;;;;-0.38;56.66;95497.03;5031118;28;20201;-73
2021/12/22 09:19:57;;;;;;;18.27;6.03;;;;;;;-0.15;58.07;95506.81;5030812;28;20220;-73
2021/12/22 09:22:26;;;;;;;12.70;6.43;;;;;;;0.17;56.92;95503.59;5026926;28;20563;-73
2021/12/22 09:24:54;;;;;;;6.05;3.88;;;;;;;0.17;55.17;95492.94;5030530;28;20316;-72
2021/12/22 09:27:21;;;;;;;11.55;5.88;;;;;;;0.35;54.89;95493.53;5030621;28;20714;-72
2021/12/22 09:29:48;;;;;;;7.93;5.57;;;;;;;0.44;55.95;95483.28;5030217;28;20219;-73
2021/12/22 09:32:17;;;;;;;13.23;5.85;;;;;;;0.56;56.32;95491.97;5028214;28;20200;-71
2021/12/22 09:34:45;;;;;;;14.63;7.47;;;;;;;0.49;55.42;95478.03;5020133;28;20232;-72
2021/12/22 09:37:12;;;;;;;22.30;8.73;;;;;;;0.40;56.00;95474.16;5030737;28;20212;-73
2021/12/22 09:39:40;;;;;;;21.02;9.98;;;;;;;-0.14;57.33;95489.78;5030251;28;20601;-72
2021/12/22 09:42:09;;;;;;;19.85;9.55;;;;;;;-0.34;57.97;95481.41;5029731;28;20522;-72
2021/12/22 09:44:43;;;;;;;17.92;8.68;;;;;;;-0.15;58.00;95474.06;5029651;28;20208;-72
2021/12/22 09:47:11;;;;;;;23.75;9.75;;;;;;;-0.24;58.07;95481.59;5010745;28;20713;-71
2021/12/22 09:49:58;;;;;;;17.63;9.15;;;;;;;0.19;58.10;95474.88;5022994;28;20516;-73
2021/12/22 09:52:27;;;;;;;22.35;9.65;;;;;;;0.04;57.66;95477.28;5008509;28;20246;-72
2021/12/22 09:54:56;;;;;;;22.38;11.00;;;;;;;-0.06;57.46;95473.41;5030408;28;20232;-72
2021/12/22 09:57:25;;;;;;;26.77;11.48;;;;;;;0.08;56.98;95467.78;5033141;28;20238;-72
2021/12/22 09:59:54;;;;;;;14.60;7.55;;;;;;;0.48;57.28;95460.41;5034299;28;20212;-72
2021/12/22 10:02:25;;;;;;;24.30;9.68;;;;;;;0.28;58.27;95460.91;5034689;28;20204;-71
2021/12/22 10:04:53;;;;;;;19.23;10.02;;;;;;;0.69;56.14;95454.31;5034427;28;20208;-71
2021/12/22 10:07:24;;;;;;;21.35;10.05;;;;;;;1.15;55.64;95452.28;5034321;28;20216;-71
2021/12/22 10:09:53;;;;;;;14.07;8.25;;;;;;;1.23;53.51;95451.81;5021421;28;20204;-72
2021/12/22 10:12:23;;;;;;;17.55;9.32;;;;;;;0.95;54.32;95452.03;5034390;28;20578;-72
2021/12/22 10:14:55;;;;;;;10.35;5.03;;;;;;;0.94;53.91;95442.41;5033761;28;20302;-72
2021/12/22 10:17:30;;;;;;;21.27;10.77;;;;;;;1.48;56.01;95450.53;5034028;28;20196;-71
2021/12/22 10:19:58;;;;;;;12.63;7.03;;;;;;;1.64;52.40;95449.63;5034270;28;20212;-71
2021/12/22 10:22:31;;;;;;;20.10;9.77;;;;;;;1.56;52.34;95444.72;5030581;28;20674;-72
2021/12/22 10:25:07;;;;;;;17.20;9.20;;;;;;;1.75;51.90;95440.66;5033928;28;20223;-72
2021/12/22 10:27:34;;;;;;;26.45;10.35;;;;;;;2.01;51.47;95447.06;5033211;28;20710;-71
2021/12/22 10:30:21;;;;;;;19.35;8.25;;;;;;;1.88;51.41;95445.59;5033707;28;20244;-72
2021/12/22 10:32:48;;;;;;;23.63;10.90;;;;;;;1.76;52.12;95447.63;5007547;28;20193;-72
2021/12/22 10:35:15;;;;;;;22.85;10.18;;;;;;;1.94;52.16;95439.25;5034073;28;20282;-73
2021/12/22 10:37:44;;;;;;;21.13;10.00;;;;;;;1.42;52.40;95437.13;5034108;28;20583;-71
2021/12/22 10:40:25;;;;;;;8.15;4.68;;;;;;;0.69;54.90;95438.31;5020564;28;20216;-73
2021/12/22 10:42:53;;;;;;;21.88;10.45;;;;;;;0.64;55.21;95446.28;5033441;28;20725;-72
2021/12/22 10:45:22;;;;;;;14.73;7.50;;;;;;;0.46;55.00;95443.88;5016726;28;20244;-73
2021/12/22 10:50:36;;;;;;;17.13;7.70;;;;;;;0.39;55.77;95440.56;5008650;28;20200;-72
2021/12/22 10:53:04;;;;;;;8.43;4.40;;;;;;;0.61;55.13;95430.75;5033424;28;20208;-72
2021/12/22 10:55:38;;;;;;;28.00;12.00;;;;;;;0.53;56.67;95428.53;5033466;28;20251;-72
2021/12/22 10:58:16;;;;;;;21.67;9.30;;;;;;;0.64;56.30;95427.59;5032908;28;20690;-72
2021/12/22 11:00:45;;;;;;;14.27;8.02;;;;;;;0.30;55.75;95426.03;5033127;28;20196;-72
2021/12/22 11:03:15;;;;;;;18.83;9.40;;;;;;;0.10;56.96;95423.88;5032973;28;20602;-72
2021/12/22 11:05:46;;;;;;;22.70;10.90;;;;;;;0.32;56.68;95415.94;5033552;28;20208;-72
2021/12/22 11:08:20;;;;;;;20.42;9.18;;;;;;;0.93;56.76;95411.47;5032685;28;20655;-72
2021/12/22 11:10:47;;;;;;;14.02;7.85;;;;;;;0.56;55.22;95411.22;5033083;28;20204;-72
2021/12/22 11:13:19;;;;;;;16.73;6.03;;;;;;;0.51;55.53;95411.97;5032863;28;20707;-72
2021/12/22 11:15:48;;;;;;;22.35;10.35;;;;;;;0.38;55.23;95409.66;5033031;28;20271;-71
2021/12/22 11:18:26;;;;;;;23.77;12.63;;;;;;;0.50;55.51;95407.69;5032615;28;20205;-72
2021/12/22 11:21:08;;;;;;;30.83;11.32;;;;;;;0.64;55.33;95406.28;5029080;28;20193;-71
2021/12/22 11:23:35;;;;;;;21.10;9.75;;;;;;;1.16;54.29;95405.88;5032872;28;20189;-72
2021/12/22 11:26:02;;;;;;;16.40;7.40;;;;;;;1.58;53.78;95398.03;5032954;28;20208;-72
2021/12/22 11:28:30;;;;;;;23.90;11.32;;;;;;;1.98;53.03;95394.94;5032505;28;20232;-72
2021/12/22 11:30:58;;;;;;;20.73;8.80;;;;;;;1.39;52.76;95397.56;5033034;28;20277;-72
2021/12/22 11:33:28;;;;;;;17.73;9.02;;;;;;;0.99;53.84;95405.91;5032316;28;20211;-71
2021/12/22 11:35:56;;;;;;;22.38;11.18;;;;;;;0.87;55.06;95388.44;5032705;28;20259;-72
2021/12/22 11:38:23;;;;;;;20.90;11.23;;;;;;;1.27;54.80;95396.91;5032745;28;20215;-71
2021/12/22 11:40:55;;;;;;;21.85;11.65;;;;;;;2.01;53.78;95391.75;5032584;28;20265;-72
2021/12/22 11:43:24;;;;;;;26.00;12.18;;;;;;;2.10;51.99;95384.88;5031564;28;20215;-72